Weather at Packer Airport

Public forecast

Using degrees Fahrenheit for public forecast. Weather courtesy of forecast.io.

Closest aviation weather report (METAR) to Packer Airport

Closest report is Delaware Municipal Airport, 9.1 nm (16.8 km) SSE. Retrieved 2020/09/26 17:15 UTC (0 seconds ago):

KDLZ 261715Z AUTO 21010G14KT 10SM SCT038 BKN044 25/15 A2998 RMK AO2

Closest aviation forecast (TAF) to Packer Airport

Closest forecast is John Glenn Columbus International Airport, 28.8 nm (53.4 km) SSE. Retrieved 2020/09/26 12:33 UTC (5 hours ago):

TAF KCMH 261130Z 2612/2712 VRB03KT P6SM BKN050 FM261400 19007KT P6SM SCT050 FM261800 19011KT P6SM SCT050 FM270000 17006KT P6SM FEW250